Time;durP1;ratioP1;P1;durP2;ratioP2;P2;SDS_P1;SDS_P2;PMS_P1;PMS_P2;Temp;Humidity;BMP_temperature;BMP_pressure;BME280_temperature;BME280_humidity;BME280_pressure;Samples;Min_cycle;Max_cycle;Signal;HPM_P1;HPM_P2
2022/06/29 00:02:17;;;;;;;18.05;5.50;;;15.50;99.90;;;-144.05;62.61;125687.94;6139829;23;20019;-87
2022/06/29 00:04:43;;;;;;;16.45;4.82;;;15.50;99.90;;;-144.05;62.67;125687.94;6111294;23;20046;-86
2022/06/29 00:07:09;;;;;;;9.65;4.00;;;15.50;99.90;;;-144.05;63.20;125687.94;6122433;23;20010;-87
2022/06/29 00:09:35;;;;;;;6.88;3.15;;;15.50;99.90;;;-144.05;64.20;125687.94;6099429;23;20022;-88
2022/06/29 00:12:01;;;;;;;11.80;4.93;;;15.30;99.90;;;-144.05;64.45;125687.94;6097600;23;20018;-88
2022/06/29 00:14:27;;;;;;;13.07;4.28;;;15.30;99.90;;;-144.05;64.29;125687.94;6098337;23;20109;-88
2022/06/29 00:16:53;;;;;;;4.65;2.88;;;15.30;99.90;;;-144.05;64.52;125687.94;6098594;23;20449;-88
2022/06/29 00:19:20;;;;;;;5.88;2.10;;;15.20;99.90;;;-144.05;65.02;125687.94;6097721;23;20011;-88
2022/06/29 00:21:46;;;;;;;4.45;2.10;;;15.00;99.90;;;-144.05;65.99;125687.94;6098274;23;20006;-88
2022/06/29 00:24:12;;;;;;;3.28;2.50;;;14.80;99.90;;;-144.05;67.08;125687.94;6122671;23;20010;-88
2022/06/29 00:26:38;;;;;;;5.30;2.72;;;14.70;99.90;;;-144.05;67.81;125687.94;6104180;23;20038;-87
2022/06/29 00:29:05;;;;;;;5.05;2.80;;;14.60;99.90;;;-144.05;68.50;125687.94;6142664;23;19998;-88
2022/06/29 00:31:31;;;;;;;5.38;3.10;;;14.50;99.90;;;-144.05;69.43;125687.94;6145287;23;20010;-88
2022/06/29 00:33:57;;;;;;;8.23;3.35;;;14.50;99.90;;;-144.05;69.70;125687.94;6105909;23;20017;-87
2022/06/29 00:36:22;;;;;;;8.57;3.13;;;14.40;99.90;;;-144.05;69.82;125687.94;6099906;23;20097;-87
2022/06/29 00:38:48;;;;;;;6.35;2.90;;;14.40;99.90;;;-144.05;69.77;125687.94;6100678;23;20032;-87
2022/06/29 00:41:14;;;;;;;4.28;2.65;;;14.40;99.90;;;-144.05;69.70;125687.94;6098817;23;20006;-84
2022/06/29 00:43:43;;;;;;;3.90;2.30;;;14.40;99.90;;;-144.05;69.59;125687.94;6098836;23;20101;-86
2022/06/29 00:46:09;;;;;;;5.53;2.60;;;14.40;99.90;;;-144.05;69.94;125687.94;6099649;23;20334;-86
2022/06/29 00:48:36;;;;;;;5.93;2.58;;;14.40;99.90;;;-144.05;69.97;125687.94;6123463;23;20504;-87
2022/06/29 00:51:03;;;;;;;3.55;2.42;;;14.40;99.90;;;-144.05;70.34;125687.94;6099448;23;20009;-86
2022/06/29 00:53:39;;;;;;;3.85;2.38;;;14.30;99.90;;;-144.05;70.98;125687.94;6123454;23;20017;-85
2022/06/29 00:56:12;;;;;;;5.07;2.60;;;14.30;99.90;;;-144.05;71.23;125687.94;6123860;23;20286;-88
2022/06/29 00:58:42;;;;;;;4.57;2.10;;;14.40;99.90;;;-144.05;71.20;125687.94;6099330;23;20010;-87
2022/06/29 01:01:11;;;;;;;3.95;2.40;;;14.30;99.90;;;-144.05;71.32;125687.94;6099628;23;20007;-86
2022/06/29 01:03:37;;;;;;;6.32;2.55;;;14.30;99.90;;;-144.05;71.59;125687.94;6100154;23;20038;-87
2022/06/29 01:06:04;;;;;;;3.67;2.22;;;14.20;99.90;;;-144.05;72.33;125687.94;6104546;23;20467;-87
2022/06/29 01:08:30;;;;;;;3.47;2.20;;;14.20;99.90;;;-144.05;72.19;125687.94;6104679;23;20086;-86
2022/06/29 01:10:56;;;;;;;3.42;2.00;;;14.10;99.90;;;-144.05;72.49;125687.94;6104678;23;20017;-88
2022/06/29 01:13:23;;;;;;;5.13;2.15;;;14.00;99.90;;;-144.05;72.76;125687.94;6129266;23;20010;-87
2022/06/29 01:15:50;;;;;;;3.33;2.10;;;14.00;99.90;;;-144.05;73.04;125687.94;6105819;23;20037;-89
2022/06/29 01:18:16;;;;;;;2.95;2.22;;;13.90;99.90;;;-144.05;73.26;125687.94;6108416;23;20003;-88
2022/06/29 01:20:42;;;;;;;3.95;2.42;;;13.90;99.90;;;-144.05;73.69;125687.94;6105232;23;20065;-88
2022/06/29 01:23:08;;;;;;;3.83;2.30;;;13.90;99.90;;;-144.05;73.94;125687.94;6104511;23;20010;-88
2022/06/29 01:25:34;;;;;;;3.20;2.55;;;13.90;99.90;;;-144.05;74.53;125687.94;6104556;23;20007;-87
2022/06/29 01:28:00;;;;;;;3.17;2.08;;;13.90;99.90;;;-144.05;74.55;125687.94;6099146;23;20010;-87
2022/06/29 01:30:28;;;;;;;3.38;2.25;;;13.90;99.90;;;-144.05;74.52;125687.94;6098747;23;20022;-89
2022/06/29 01:32:54;;;;;;;2.90;2.10;;;14.00;99.90;;;-144.05;74.45;125687.94;6124258;23;20021;-87
2022/06/29 01:35:23;;;;;;;2.38;2.03;;;14.00;99.90;;;-144.05;74.33;125687.94;6100158;23;20038;-88
2022/06/29 01:37:49;;;;;;;3.83;2.00;;;14.00;99.90;;;-144.05;74.54;125687.94;6101121;23;20208;-88
2022/06/29 01:40:16;;;;;;;4.57;2.20;;;14.00;99.90;;;-144.05;74.77;125687.94;6128196;23;20341;-87
2022/06/29 01:42:43;;;;;;;8.00;2.92;;;14.00;99.90;;;-144.05;75.15;125687.94;6102360;23;20146;-87
2022/06/29 01:45:10;;;;;;;4.65;2.60;;;14.10;99.90;;;-144.05;74.95;125687.94;6101896;23;20022;-88
2022/06/29 01:47:35;;;;;;;4.43;2.25;;;14.10;99.90;;;-144.05;74.64;125687.94;6126336;23;20362;-88
2022/06/29 01:50:02;;;;;;;5.45;2.47;;;14.10;99.90;;;-144.05;74.83;125687.94;6126741;23;20046;-87
2022/06/29 01:52:29;;;;;;;5.40;2.40;;;14.10;99.90;;;-144.05;74.72;125687.94;6103048;23;20006;-87
2022/06/29 01:54:54;;;;;;;5.07;2.55;;;14.00;99.90;;;-144.05;75.28;125687.94;6129958;23;20029;-86
2022/06/29 01:57:20;;;;;;;5.38;2.85;;;14.00;99.90;;;-144.05;75.46;125687.94;6122535;23;20078;-86
2022/06/29 01:59:46;;;;;;;4.05;2.60;;;14.10;99.90;;;-144.05;73.49;125687.94;6105338;23;20010;-85
2022/06/29 02:02:12;;;;;;;2.58;2.22;;;14.20;99.90;;;-144.05;72.78;125687.94;6103598;23;20017;-87
2022/06/29 02:04:38;;;;;;;4.72;2.40;;;14.50;99.90;;;-144.05;72.49;125687.94;6105773;23;20030;-84
2022/06/29 02:07:04;;;;;;;2.95;2.03;;;14.60;99.90;;;-144.05;72.51;125687.94;6120334;23;20061;-87
2022/06/29 02:09:30;;;;;;;3.10;2.30;;;14.60;99.90;;;-144.05;72.44;125687.94;6106484;23;20086;-87
2022/06/29 02:11:56;;;;;;;3.33;2.45;;;14.60;99.90;;;-144.05;72.44;125687.94;6099091;23;20488;-85
2022/06/29 02:14:21;;;;;;;3.78;2.05;;;14.70;99.90;;;-144.05;72.19;125687.94;6099107;23;20011;-86
2022/06/29 02:16:47;;;;;;;4.70;2.45;;;14.70;99.90;;;-144.05;72.06;125687.94;6099477;23;20011;-85
2022/06/29 02:19:13;;;;;;;5.97;2.97;;;14.80;99.90;;;-144.05;71.51;125687.94;6123335;23;20029;-87
2022/06/29 02:21:39;;;;;;;3.55;2.33;;;14.90;99.90;;;-144.05;70.40;125687.94;6101234;23;20006;-87
2022/06/29 02:24:06;;;;;;;3.55;1.80;;;14.90;99.90;;;-144.05;69.98;125687.94;6098359;23;20393;-83
2022/06/29 02:26:32;;;;;;;3.17;2.50;;;15.00;99.90;;;-144.05;67.88;125687.94;6098258;23;20018;-87
2022/06/29 02:28:58;;;;;;;3.42;2.35;;;15.10;99.90;;;-144.05;67.35;125687.94;6098405;23;20014;-87
2022/06/29 02:36:56;;;;;;;3.03;2.70;;;15.20;99.90;;;-144.05;68.32;125687.94;6099168;23;20017;-86
2022/06/29 02:39:22;;;;;;;3.75;2.42;;;15.10;99.90;;;-144.05;68.67;125687.94;6097218;23;20090;-87
2022/06/29 02:41:48;;;;;;;4.57;2.42;;;15.00;99.90;;;-144.05;69.22;125687.94;6098227;23;20022;-88
2022/06/29 02:44:14;;;;;;;2.83;2.20;;;14.90;99.90;;;-144.05;69.47;125687.94;6098595;23;20006;-88
2022/06/29 02:46:39;;;;;;;4.55;2.30;;;14.90;99.90;;;-144.05;69.67;125687.94;6098361;23;20014;-88
2022/06/29 02:49:07;;;;;;;4.75;2.70;;;14.80;99.90;;;-144.05;70.05;125687.94;6123400;23;20010;-88
2022/06/29 02:51:33;;;;;;;3.13;2.20;;;14.80;99.90;;;-144.05;70.25;125687.94;6098934;23;20010;-88
2022/06/29 02:54:01;;;;;;;4.88;2.70;;;14.70;99.90;;;-144.05;70.64;125687.94;6097254;23;20037;-87
2022/06/29 02:56:27;;;;;;;2.22;2.03;;;14.70;99.90;;;-144.05;71.05;125687.94;6098066;23;20006;-90
2022/06/29 02:58:53;;;;;;;3.58;2.10;;;14.70;99.90;;;-144.05;71.35;125687.94;6098245;23;20014;-88
2022/06/29 03:01:19;;;;;;;4.35;1.95;;;14.60;99.90;;;-144.05;71.57;125687.94;6098400;23;20010;-86
2022/06/29 03:03:45;;;;;;;4.40;2.10;;;14.60;99.90;;;-144.05;71.79;125687.94;6098724;23;20467;-90
2022/06/29 03:06:12;;;;;;;4.65;2.47;;;14.50;99.90;;;-144.05;71.84;125687.94;6098118;23;20425;-88
2022/06/29 03:08:38;;;;;;;3.17;2.10;;;14.50;99.90;;;-144.05;72.14;125687.94;6097674;23;20010;-87
2022/06/29 03:11:04;;;;;;;6.97;2.35;;;14.50;99.90;;;-144.05;72.34;125687.94;6123379;23;20010;-87
2022/06/29 03:13:30;;;;;;;4.20;1.80;;;14.40;99.90;;;-144.05;72.80;125687.94;6123326;23;20361;-86
2022/06/29 03:15:56;;;;;;;7.55;2.25;;;14.30;99.90;;;-144.05;73.10;125687.94;6123633;23;20007;-85
2022/06/29 03:18:22;;;;;;;3.78;2.13;;;14.30;99.90;;;-144.05;73.32;125687.94;6098378;23;20013;-86
2022/06/29 03:20:53;;;;;;;6.45;2.45;;;14.20;99.90;;;-144.05;73.53;125687.94;6099608;23;20070;-88
2022/06/29 03:23:19;;;;;;;9.43;2.58;;;14.20;99.90;;;-144.05;73.69;125687.94;6099883;23;20013;-86
2022/06/29 03:25:47;;;;;;;12.07;3.05;;;14.20;99.90;;;-144.05;74.08;125687.94;6098284;23;20093;-88
2022/06/29 03:28:13;;;;;;;3.85;2.35;;;14.20;99.90;;;-144.05;74.29;125687.94;6123498;23;20380;-89
2022/06/29 03:30:41;;;;;;;7.25;2.35;;;14.20;99.90;;;-144.05;74.30;125687.94;6099490;23;20014;-88
2022/06/29 03:33:07;;;;;;;8.02;2.70;;;14.20;99.90;;;-144.05;74.27;125687.94;6099299;23;20405;-88
2022/06/29 03:35:33;;;;;;;6.38;2.50;;;14.20;99.90;;;-144.05;74.17;125687.94;6099672;23;20479;-89
2022/06/29 03:37:59;;;;;;;6.32;2.30;;;14.30;99.90;;;-144.05;74.13;125687.94;6100166;23;20444;-88
2022/06/29 03:42:55;;;;;;;6.10;2.58;;;14.30;99.90;;;-144.05;74.41;125687.94;6106807;23;20436;-91
2022/06/29 03:45:22;;;;;;;5.35;2.20;;;14.40;99.90;;;-144.05;74.36;125687.94;6111162;23;20090;-90
2022/06/29 03:47:49;;;;;;;4.57;2.13;;;14.40;99.90;;;-144.05;74.25;125687.94;6078390;23;20015;-86
2022/06/29 03:50:16;;;;;;;4.82;2.15;;;14.40;99.90;;;-144.05;74.12;125687.94;6095267;23;20403;-90
2022/06/29 03:52:42;;;;;;;6.15;3.00;;;14.50;99.90;;;-144.05;73.62;125687.94;6100831;23;20164;-87
2022/06/29 03:55:09;;;;;;;4.97;2.33;;;14.50;99.90;;;-144.05;73.59;125687.94;6100817;23;20475;-87
2022/06/29 03:57:35;;;;;;;3.72;2.08;;;14.60;99.90;;;-144.05;73.40;125687.94;6100506;23;20017;-87
2022/06/29 04:00:04;;;;;;;4.93;2.20;;;14.60;99.90;;;-144.05;73.54;125687.94;6099805;23;20003;-88
2022/06/29 04:02:30;;;;;;;3.38;1.75;;;14.70;99.90;;;-144.05;73.57;125687.94;6100458;23;20038;-88
2022/06/29 04:04:56;;;;;;;2.80;2.15;;;14.80;99.90;;;-144.05;73.68;125687.94;6099684;23;20010;-88
2022/06/29 04:07:23;;;;;;;3.33;2.00;;;14.80;99.90;;;-144.05;73.69;125687.94;6100709;23;20341;-87
2022/06/29 04:09:49;;;;;;;3.08;2.10;;;14.80;99.90;;;-144.05;73.53;125687.94;6100086;23;20010;-88
2022/06/29 04:12:15;;;;;;;4.45;2.28;;;14.90;99.90;;;-144.05;73.12;125687.94;6100105;23;20101;-87
2022/06/29 04:14:41;;;;;;;2.60;1.98;;;14.90;99.90;;;-144.05;72.35;125687.94;6099552;23;20013;-90
2022/06/29 04:17:07;;;;;;;3.80;2.25;;;14.90;99.90;;;-144.05;71.83;125687.94;6099743;23;20512;-88
2022/06/29 04:19:33;;;;;;;6.10;2.30;;;15.10;99.90;;;-144.05;71.74;125687.94;6099154;23;20041;-87
2022/06/29 04:21:59;;;;;;;4.55;2.30;;;15.20;99.90;;;-144.05;71.40;125687.94;6098503;23;20014;-89
2022/06/29 04:24:25;;;;;;;5.03;2.42;;;15.20;99.90;;;-144.05;71.10;125687.94;6133094;23;20019;-89
2022/06/29 04:26:51;;;;;;;5.53;2.08;;;15.30;99.90;;;-144.05;71.31;125687.94;6109416;23;20006;-88
2022/06/29 04:29:16;;;;;;;3.92;2.08;;;15.40;99.90;;;-144.05;71.43;125687.94;6101123;23;20010;-90
2022/06/29 04:31:42;;;;;;;8.27;2.15;;;15.40;99.90;;;-144.05;71.46;125687.94;6100621;23;20069;-90
2022/06/29 04:34:08;;;;;;;3.13;1.98;;;15.50;99.90;;;-144.05;71.33;125687.94;6100759;23;20025;-88
2022/06/29 04:36:34;;;;;;;6.85;2.28;;;15.50;99.90;;;-144.05;70.80;125687.94;6100979;23;20010;-89
2022/06/29 04:39:02;;;;;;;3.65;2.00;;;15.60;99.90;;;-144.05;70.51;125687.94;6101362;23;20061;-88
2022/06/29 04:41:28;;;;;;;4.20;2.05;;;15.60;99.90;;;-144.05;70.27;125687.94;6101835;23;20010;-93
2022/06/29 04:43:53;;;;;;;2.65;2.08;;;15.60;99.90;;;-144.05;70.05;125687.94;6100672;23;20021;-87
2022/06/29 04:46:19;;;;;;;3.08;1.73;;;15.80;99.90;;;-144.05;69.70;125687.94;6101442;23;20097;-88
2022/06/29 04:49:15;;;;;;;5.57;2.53;;;15.90;99.90;;;-144.05;69.13;125687.94;6101303;23;20018;-89
2022/06/29 04:51:41;;;;;;;3.95;2.30;;;16.20;99.90;;;-144.05;68.47;125687.94;6082883;23;20078;-88
2022/06/29 04:54:06;;;;;;;2.47;1.80;;;16.40;99.90;;;-144.05;67.47;125687.94;6101494;23;20022;-91
2022/06/29 04:56:35;;;;;;;5.22;2.20;;;16.60;99.90;;;-144.05;66.73;125687.94;6104517;23;20016;-87
2022/06/29 04:59:02;;;;;;;6.00;2.28;;;16.80;99.90;;;-144.05;66.17;125687.94;6101935;23;20007;-87
2022/06/29 05:01:31;;;;;;;4.80;2.40;;;16.90;99.90;;;-144.05;65.62;125687.94;6102507;23;20306;-87
2022/06/29 05:03:59;;;;;;;4.28;2.42;;;16.90;99.90;;;-144.05;64.42;125687.94;6127513;23;20128;-88
2022/06/29 05:06:25;;;;;;;5.03;1.90;;;17.00;99.90;;;-144.05;61.08;125687.94;6104386;23;20017;-91
2022/06/29 05:08:52;;;;;;;4.78;2.22;;;17.10;99.90;;;-144.05;59.39;125687.94;6104488;23;20098;-89
2022/06/29 05:11:22;;;;;;;2.65;1.92;;;17.20;99.90;;;-144.05;59.38;125687.94;6100315;23;20069;-91
2022/06/29 05:13:49;;;;;;;2.97;1.80;;;17.30;99.90;;;-144.05;60.15;125687.94;6100585;23;20018;-86
2022/06/29 05:16:15;;;;;;;3.85;2.00;;;17.40;99.90;;;-144.05;60.75;125687.94;6103009;23;20010;-87
2022/06/29 05:18:41;;;;;;;4.22;2.30;;;17.40;99.90;;;-144.05;60.18;125687.94;6103016;23;20082;-87
2022/06/29 05:21:09;;;;;;;5.53;1.92;;;17.40;99.90;;;-144.05;60.97;125687.94;6103606;23;20017;-88
2022/06/29 05:23:35;;;;;;;6.45;2.00;;;17.50;99.90;;;-144.05;61.33;125687.94;6103501;23;20010;-86
2022/06/29 05:26:01;;;;;;;6.55;1.92;;;17.40;99.90;;;-144.05;61.85;125687.94;6102923;23;20030;-90
2022/06/29 05:28:27;;;;;;;16.40;3.22;;;17.50;99.90;;;-144.05;62.43;125687.94;6103615;23;20025;-86
2022/06/29 05:30:53;;;;;;;9.80;2.72;;;17.60;99.90;;;-144.05;62.23;125687.94;6105439;23;20030;-85
2022/06/29 05:33:20;;;;;;;8.65;2.28;;;17.80;99.90;;;-144.05;59.38;125687.94;6102419;23;20445;-91
2022/06/29 05:35:47;;;;;;;10.60;2.60;;;18.10;99.90;;;-144.05;58.33;125687.94;6128407;23;20002;-87
2022/06/29 05:38:13;;;;;;;8.20;2.97;;;18.60;99.90;;;-144.05;56.96;125687.94;6105058;23;20006;-90
2022/06/29 05:40:39;;;;;;;6.15;2.33;;;19.10;99.90;;;-144.05;54.49;125687.94;6106934;23;20101;-89
2022/06/29 05:43:07;;;;;;;5.10;2.17;;;19.70;99.90;;;-144.05;51.86;125687.94;6110539;23;20006;-91
2022/06/29 05:45:33;;;;;;;2.55;1.70;;;20.10;99.90;;;-144.05;46.92;125687.94;6110047;23;20013;-90
2022/06/29 05:47:59;;;;;;;3.55;2.00;;;20.10;99.90;;;-144.05;46.70;125687.94;6110617;23;20053;-88
2022/06/29 05:50:25;;;;;;;6.78;2.20;;;20.00;99.90;;;-144.05;47.06;125687.94;6114559;23;20069;-88
2022/06/29 05:52:52;;;;;;;6.18;2.13;;;20.00;99.90;;;-144.05;46.85;125687.94;6117861;23;20021;-90
2022/06/29 05:55:18;;;;;;;4.63;1.98;;;20.40;99.90;;;-144.05;45.52;125687.94;6108860;23;20002;-89
2022/06/29 05:57:45;;;;;;;2.53;1.73;;;20.90;99.90;;;-144.05;43.26;125687.94;6108919;23;20057;-87
2022/06/29 06:00:13;;;;;;;4.70;1.98;;;21.60;99.90;;;-144.05;41.58;125687.94;6135645;23;20070;-90
2022/06/29 06:02:39;;;;;;;2.00;1.52;;;22.10;99.90;;;-144.05;40.90;125687.94;6110079;23;20052;-91
2022/06/29 06:05:07;;;;;;;3.72;1.80;;;22.50;99.90;;;-144.05;40.39;125687.94;6138900;23;20093;-91
2022/06/29 06:07:33;;;;;;;2.67;1.50;;;22.80;99.90;;;-144.05;39.72;125687.94;6121172;23;20423;-88
2022/06/29 06:09:59;;;;;;;3.92;1.80;;;23.20;99.90;;;-144.05;38.84;125687.94;6106721;23;20041;-87
2022/06/29 06:12:25;;;;;;;4.95;1.95;;;23.50;99.90;;;-144.05;36.87;125687.94;6131446;23;20069;-89
2022/06/29 06:14:51;;;;;;;4.20;1.70;;;23.80;99.40;;;-144.05;37.20;125687.94;6132775;23;20010;-89
2022/06/29 06:17:16;;;;;;;2.85;2.10;;;24.20;99.20;;;-144.05;36.68;125687.94;6106750;23;20006;-86
2022/06/29 06:19:42;;;;;;;3.75;2.28;;;24.50;96.90;;;-144.05;36.67;125687.94;6106372;23;20455;-87
2022/06/29 06:22:08;;;;;;;8.45;2.47;;;24.20;96.70;;;-144.05;36.81;125687.94;6106747;23;20010;-87
2022/06/29 06:24:34;;;;;;;3.72;1.88;;;24.00;96.00;;;-144.05;37.63;125687.94;6133875;23;20332;-87
2022/06/29 06:27:01;;;;;;;4.90;1.95;;;24.00;98.60;;;-144.05;37.64;125687.94;6107766;23;20033;-88
2022/06/29 06:29:27;;;;;;;4.95;1.73;;;23.60;96.50;;;-144.05;38.57;125687.94;6107502;23;20016;-88
2022/06/29 06:31:53;;;;;;;5.03;1.95;;;23.30;98.90;;;-144.05;39.79;125687.94;6108019;23;20017;-86
2022/06/29 06:34:20;;;;;;;4.22;1.90;;;22.70;99.90;;;-144.05;40.70;125687.94;6109097;23;20040;-86
2022/06/29 06:36:46;;;;;;;3.03;1.73;;;22.40;99.90;;;-144.05;40.96;125687.94;6141327;23;20002;-89
2022/06/29 06:39:11;;;;;;;5.07;1.88;;;22.20;99.90;;;-144.05;42.05;125687.94;6138757;23;20041;-86
2022/06/29 06:41:37;;;;;;;3.22;1.77;;;22.00;99.90;;;-144.05;42.01;125687.94;6107035;23;20440;-85
2022/06/29 06:44:03;;;;;;;3.08;1.90;;;21.90;99.90;;;-144.05;42.72;125687.94;6105641;23;20073;-89
2022/06/29 06:46:30;;;;;;;3.88;1.80;;;21.80;99.90;;;-144.05;43.04;125687.94;6106342;23;20010;-86
2022/06/29 06:48:56;;;;;;;6.53;2.10;;;21.70;99.90;;;-144.05;42.93;125687.94;6130881;23;20010;-88
2022/06/29 06:51:24;;;;;;;4.55;1.88;;;21.70;99.90;;;-144.05;43.03;125687.94;6106025;23;20013;-87
2022/06/29 06:53:51;;;;;;;4.97;2.08;;;21.70;99.90;;;-144.05;42.32;125687.94;6105767;23;20010;-87
2022/06/29 06:56:18;;;;;;;3.65;2.03;;;21.60;99.90;;;-144.05;42.99;125687.94;6131786;23;20340;-88
2022/06/29 06:58:44;;;;;;;4.47;1.60;;;21.60;99.90;;;-144.05;43.57;125687.94;6105682;23;20006;-87
2022/06/29 07:01:11;;;;;;;3.70;1.58;;;21.60;99.90;;;-144.05;43.99;125687.94;6106332;23;20057;-88
2022/06/29 07:03:38;;;;;;;2.67;1.40;;;21.50;99.90;;;-144.05;44.56;125687.94;6106429;23;20014;-87
2022/06/29 07:06:08;;;;;;;2.22;1.60;;;21.60;99.90;;;-144.05;45.29;125687.94;6132623;23;20006;-87
2022/06/29 07:08:37;;;;;;;3.72;1.75;;;21.60;99.90;;;-144.05;45.61;125687.94;6131548;23;20036;-89
2022/06/29 07:11:06;;;;;;;3.13;1.40;;;21.50;99.90;;;-144.05;46.22;125687.94;6105840;23;20041;-88
2022/06/29 07:13:33;;;;;;;4.28;1.70;;;21.50;99.90;;;-144.05;46.26;125687.94;6106722;23;20440;-87
2022/06/29 07:16:05;;;;;;;5.97;2.10;;;21.50;99.90;;;-144.05;46.05;125687.94;6105199;23;20006;-89
2022/06/29 07:18:34;;;;;;;6.18;1.70;;;21.40;99.90;;;-144.05;45.87;125687.94;6105501;23;20009;-87
2022/06/29 07:21:02;;;;;;;3.03;1.60;;;21.40;99.90;;;-144.05;45.90;125687.94;6132194;23;20002;-86
2022/06/29 07:23:28;;;;;;;5.47;1.77;;;21.40;99.90;;;-144.05;45.74;125687.94;6105964;23;20443;-88
2022/06/29 07:25:56;;;;;;;6.05;1.60;;;21.30;99.90;;;-144.05;45.71;125687.94;6133010;23;20010;-90
2022/06/29 07:28:23;;;;;;;4.88;1.98;;;21.40;99.90;;;-144.05;45.02;125687.94;6133352;23;20006;-89
2022/06/29 07:30:49;;;;;;;5.45;1.85;;;21.30;99.90;;;-144.05;44.99;125687.94;6108380;23;20014;-88
2022/06/29 07:33:15;;;;;;;4.45;1.70;;;21.40;99.90;;;-144.05;45.15;125687.94;6109399;23;20018;-89
2022/06/29 07:35:41;;;;;;;3.72;2.22;;;21.40;99.90;;;-144.05;45.25;125687.94;6110367;23;20029;-89
2022/06/29 07:38:09;;;;;;;4.82;1.65;;;21.50;99.90;;;-144.05;45.06;125687.94;6111624;23;20524;-87
2022/06/29 07:40:35;;;;;;;5.35;1.85;;;21.40;99.90;;;-144.05;45.26;125687.94;6106215;23;20010;-87
2022/06/29 07:43:01;;;;;;;2.70;1.60;;;21.50;99.90;;;-144.05;44.92;125687.94;6131193;23;20016;-86
2022/06/29 07:45:27;;;;;;;5.93;1.85;;;21.40;99.90;;;-144.05;45.07;125687.94;6129755;23;20506;-89
2022/06/29 07:47:53;;;;;;;4.72;1.85;;;21.50;99.90;;;-144.05;45.22;125687.94;6130050;23;20006;-89
2022/06/29 07:50:19;;;;;;;3.17;1.70;;;21.40;99.90;;;-144.05;45.63;125687.94;6104327;23;20440;-89
2022/06/29 07:52:44;;;;;;;3.13;2.00;;;21.50;99.90;;;-144.05;46.09;125687.94;6104938;23;20009;-89
2022/06/29 07:55:11;;;;;;;5.55;1.80;;;21.50;99.90;;;-144.05;46.09;125687.94;6105381;23;20014;-88
2022/06/29 07:57:37;;;;;;;4.38;1.52;;;21.50;99.90;;;-144.05;46.01;125687.94;6104794;23;20017;-90
2022/06/29 08:00:07;;;;;;;4.50;1.90;;;21.50;99.90;;;-144.05;44.79;125687.94;6104246;23;20006;-89
2022/06/29 08:02:33;;;;;;;5.05;2.00;;;21.50;99.90;;;-144.05;44.81;125687.94;6105541;23;20010;-86
2022/06/29 08:05:01;;;;;;;5.47;1.85;;;21.50;99.90;;;-144.05;44.69;125687.94;6105656;23;20310;-90
2022/06/29 08:07:28;;;;;;;5.18;2.17;;;21.60;99.90;;;-144.05;44.91;125687.94;6129312;23;20093;-87
2022/06/29 08:09:54;;;;;;;5.32;1.80;;;21.60;99.90;;;-144.05;44.81;125687.94;6131271;23;20006;-89
2022/06/29 08:12:21;;;;;;;2.90;1.73;;;21.60;99.90;;;-144.05;44.57;125687.94;6130086;23;20037;-88
2022/06/29 08:14:46;;;;;;;5.38;2.05;;;21.70;99.90;;;-144.05;44.28;125687.94;6132312;23;20006;-88
2022/06/29 08:17:12;;;;;;;9.75;2.28;;;21.70;99.90;;;-144.05;44.24;125687.94;6106674;23;20005;-86
2022/06/29 08:19:38;;;;;;;5.60;2.05;;;21.80;99.90;;;-144.05;44.22;125687.94;6106443;23;20010;-90
2022/06/29 08:22:04;;;;;;;5.88;2.40;;;21.80;99.90;;;-144.05;44.32;125687.94;6109448;23;20409;-91
2022/06/29 08:24:30;;;;;;;6.35;2.13;;;21.80;99.90;;;-144.05;43.80;125687.94;6109666;23;20041;-90
2022/06/29 08:26:56;;;;;;;6.80;2.75;;;21.80;99.90;;;-144.05;44.13;125687.94;6114059;23;20016;-89
2022/06/29 08:29:22;;;;;;;4.25;2.33;;;21.80;99.90;;;-144.05;44.34;125687.94;6108155;23;20372;-87
2022/06/29 08:31:48;;;;;;;5.15;2.15;;;21.80;99.90;;;-144.05;44.75;125687.94;6105320;23;20010;-89
2022/06/29 08:34:16;;;;;;;3.88;2.20;;;21.90;99.90;;;-144.05;45.38;125687.94;6106095;23;20079;-89
2022/06/29 08:36:42;;;;;;;3.42;1.80;;;21.90;99.90;;;-144.05;44.72;125687.94;6129886;23;20065;-89
2022/06/29 08:39:08;;;;;;;4.53;1.88;;;22.00;99.90;;;-144.05;44.87;125687.94;6106897;23;20006;-86
2022/06/29 08:41:37;;;;;;;4.97;2.28;;;22.00;99.90;;;-144.05;44.75;125687.94;6106280;23;20097;-86
2022/06/29 08:44:05;;;;;;;5.50;2.40;;;22.00;99.90;;;-144.05;44.32;125687.94;6133630;23;20021;-88
2022/06/29 08:46:31;;;;;;;5.15;2.17;;;22.10;99.90;;;-144.05;44.12;125687.94;6132342;23;20161;-87
2022/06/29 08:48:57;;;;;;;6.30;2.20;;;22.10;99.90;;;-144.05;43.80;125687.94;6112360;23;20009;-87
2022/06/29 08:51:33;;;;;;;2.58;1.77;;;22.10;99.90;;;-144.05;43.92;125687.94;6137642;23;20036;-87
2022/06/29 08:54:07;;;;;;;4.82;2.35;;;22.20;99.90;;;-144.05;43.75;125687.94;6108779;23;20021;-89
2022/06/29 08:56:35;;;;;;;6.07;2.25;;;22.20;99.90;;;-144.05;43.66;125687.94;6134156;23;20389;-88
2022/06/29 08:59:03;;;;;;;5.60;2.03;;;22.30;99.90;;;-144.05;43.78;125687.94;6134155;23;20488;-86
2022/06/29 09:01:31;;;;;;;6.30;2.15;;;22.40;99.90;;;-144.05;43.75;125687.94;6107532;23;20468;-88
2022/06/29 09:03:57;;;;;;;5.22;2.53;;;22.40;99.90;;;-144.05;43.88;125687.94;6109236;23;20018;-87
2022/06/29 09:06:23;;;;;;;7.03;2.55;;;22.30;99.90;;;-144.05;44.07;125687.94;6135765;23;20388;-87
2022/06/29 09:08:50;;;;;;;6.25;2.30;;;22.20;99.90;;;-144.05;44.35;125687.94;6108577;23;20020;-87
2022/06/29 09:11:28;;;;;;;5.57;2.35;;;22.20;99.90;;;-144.05;44.36;125687.94;6108177;23;20069;-86
2022/06/29 09:14:21;;;;;;;8.10;2.50;;;22.20;99.90;;;-144.05;44.16;125687.94;6132114;23;20065;-87
2022/06/29 09:17:02;;;;;;;11.40;2.72;;;22.20;99.90;;;-144.05;44.25;125687.94;6106584;23;20009;-87
2022/06/29 09:19:42;;;;;;;8.98;2.72;;;22.30;99.90;;;-144.05;43.74;125687.94;6107796;23;20028;-88
2022/06/29 09:22:08;;;;;;;7.28;2.65;;;22.20;99.90;;;-144.05;43.96;125687.94;6107566;23;20006;-89
2022/06/29 09:24:34;;;;;;;6.95;2.58;;;22.10;99.90;;;-144.05;44.25;125687.94;6132445;23;20006;-90
2022/06/29 09:27:11;;;;;;;6.60;2.55;;;22.10;99.90;;;-144.05;44.91;125687.94;6107675;23;20006;-86
2022/06/29 09:29:43;;;;;;;12.13;2.92;;;22.10;99.90;;;-144.05;44.74;125687.94;6134127;23;20383;-90
2022/06/29 09:32:13;;;;;;;5.50;2.47;;;22.10;99.90;;;-144.05;45.18;125687.94;6107369;23;20013;-89
2022/06/29 09:34:48;;;;;;;4.80;2.30;;;22.10;99.90;;;-144.05;45.37;125687.94;6106533;23;20081;-88
2022/06/29 09:37:22;;;;;;;6.47;2.60;;;22.10;99.90;;;-144.05;45.87;125687.94;6107385;23;20265;-88
2022/06/29 09:39:54;;;;;;;6.07;2.47;;;22.10;99.90;;;-144.05;45.73;125687.94;6107000;23;20006;-88
2022/06/29 09:42:27;;;;;;;6.85;2.42;;;22.10;99.90;;;-144.05;45.36;125687.94;6106329;23;20332;-89
2022/06/29 09:44:54;;;;;;;6.57;2.15;;;22.00;99.90;;;-144.05;45.39;125687.94;6107100;23;20009;-85
2022/06/29 09:47:22;;;;;;;4.18;2.10;;;22.00;99.90;;;-144.05;45.95;125687.94;6106217;23;20014;-86
2022/06/29 09:49:59;;;;;;;8.88;2.33;;;22.10;99.90;;;-144.05;46.13;125687.94;6105691;23;20010;-89
2022/06/29 09:52:27;;;;;;;10.73;2.42;;;22.10;99.90;;;-144.05;45.47;125687.94;6131800;23;20012;-87
2022/06/29 09:54:57;;;;;;;5.03;2.28;;;22.20;99.90;;;-144.05;45.03;125687.94;6106439;23;20010;-86
2022/06/29 09:57:29;;;;;;;10.45;2.38;;;22.20;99.90;;;-144.05;45.37;125687.94;6106489;23;20086;-87
2022/06/29 10:02:55;;;;;;;5.57;2.70;;;22.30;99.90;;;-144.05;45.16;125687.94;6131619;23;20061;-87
2022/06/29 10:05:54;;;;;;;5.45;2.58;;;22.40;99.90;;;-144.05;45.56;125687.94;6106573;23;20006;-87
2022/06/29 10:08:14;;;;;;;4.35;2.00;;;22.50;99.90;;;-144.05;45.71;125687.94;6142462;23;20006;-90
2022/06/29 10:10:56;;;;;;;7.60;1.92;;;22.50;99.90;;;-144.05;45.20;125687.94;6107102;23;20040;-90
2022/06/29 10:13:39;;;;;;;5.03;2.42;;;22.60;99.90;;;-144.05;44.65;125687.94;6105895;23;20021;-87